SV1LH-1 Melissia GR current weather conditions

sailwx.info

Wind from 045 at 7 knots gusting 13

Air temperature 6.1° C
Dewpoint 3.1° C

Last reported at 2017-Jan-20 06:54 UTC.
Time now 2017-Jan-20 07:43 UTC

Location: N 38°03' E 023°51'.
View on Google Maps.

See reports from other nearby stations

  
Tides and Currents Weather Stations Pressure Air Temp Water Temp Dewpoint Dewpoint Depression Visibility Wind Speed Wind Dir Waves Ship Positions
date/time (UTC)wind fromknots sea level pressurealtimeterstation pressurevisibilityair tempwater tempwave heightnotes
2017-Jan-20 06:54 045 7 gusting 13 6.1
2017-Jan-20 06:49 5.6
2017-Jan-20 06:44 022 5 gusting 9 5.6
2017-Jan-20 06:39 337 8 gusting 15 5.6
2017-Jan-20 06:34 022 9 gusting 17 5.6
2017-Jan-20 06:29 5.0
2017-Jan-20 06:24 045 9 gusting 13 4.4
2017-Jan-20 06:19 247 6 gusting 8 3.9
2017-Jan-20 06:14 045 10 gusting 15 3.3
2017-Jan-20 06:09 045 11 gusting 17 3.3
2017-Jan-20 06:04 045 7 gusting 12 3.3
2017-Jan-20 05:59 3.3
2017-Jan-20 05:54 3.3
2017-Jan-20 05:49 337 7 gusting 13 2.8
2017-Jan-20 05:44 022 10 gusting 17 2.8
2017-Jan-20 05:39 022 11 gusting 15 2.8
2017-Jan-20 05:34 2.8
2017-Jan-20 05:29 2.8
2017-Jan-20 05:24 045 8 gusting 13 2.8
2017-Jan-20 05:19 2.8
2017-Jan-20 05:14 112 7 gusting 13 2.8
2017-Jan-20 05:09 022 6 gusting 11 2.8
2017-Jan-20 05:04 2.8
2017-Jan-20 04:59 022 6 gusting 12 3.3
2017-Jan-20 04:54 022 9 gusting 15 2.8
2017-Jan-20 04:49 022 6 gusting 13 2.8
2017-Jan-20 04:44 2.8
2017-Jan-20 04:39 2.8
2017-Jan-20 04:34 045 4 gusting 6 2.8
2017-Jan-20 04:29 270 6 gusting 13 2.8
2017-Jan-20 04:24 2.8
2017-Jan-20 04:19 270 6 gusting 13 3.3
2017-Jan-20 04:14 045 6 gusting 11 3.3
2017-Jan-20 04:09 067 7 gusting 10 3.3
2017-Jan-20 04:04 157 7 gusting 15 3.3
2017-Jan-20 03:59 337 10 gusting 13 3.3
2017-Jan-20 03:54 045 9 gusting 13 3.3
2017-Jan-20 03:49 292 4 gusting 7 3.3
2017-Jan-20 03:44 3.3
2017-Jan-20 03:39 3.3
2017-Jan-20 03:34 3.3
2017-Jan-20 03:29 337 9 gusting 19 3.3
2017-Jan-20 03:24 3.3
2017-Jan-20 03:19 045 7 gusting 15 3.3
2017-Jan-20 03:14 3.3
2017-Jan-20 03:09 3.3
2017-Jan-20 03:04 3.3
2017-Jan-20 02:59 3.3
2017-Jan-20 02:54 022 8 gusting 12 3.3
2017-Jan-20 02:49 022 7 gusting 14 3.3
2017-Jan-20 02:44 090 10 gusting 15 3.3
2017-Jan-20 02:39 3.3
2017-Jan-20 02:34 022 11 gusting 18 3.3
2017-Jan-20 02:29 337 8 gusting 12 3.3
2017-Jan-20 02:24 022 9 gusting 14 3.3
2017-Jan-20 02:19 3.3
2017-Jan-20 02:14 3.3
2017-Jan-20 02:09 337 6 gusting 13 3.3
2017-Jan-20 02:04 3.3
2017-Jan-20 01:59 022 12 gusting 17 3.3
2017-Jan-20 01:54 022 11 gusting 15 3.3
2017-Jan-20 01:49 045 10 gusting 13 3.3
2017-Jan-20 01:44 022 7 gusting 13 3.3
2017-Jan-20 01:39 3.3
2017-Jan-20 01:34 045 8 gusting 13 3.3
2017-Jan-20 01:29 022 5 gusting 8 3.9
2017-Jan-20 01:24 045 6 gusting 13 3.9
2017-Jan-20 01:19 045 6 gusting 11 3.9
2017-Jan-20 01:14 022 6 gusting 11 3.9
2017-Jan-20 01:09 3.9
2017-Jan-20 01:04 315 4 gusting 6 3.9
2017-Jan-20 00:59 3.9
2017-Jan-20 00:54 022 8 gusting 12 3.9
2017-Jan-20 00:49 3.3
2017-Jan-20 00:44 022 2 gusting 3 3.3
2017-Jan-20 00:39 045 3 gusting 6 3.3
2017-Jan-20 00:34 067 5 gusting 7 3.3
2017-Jan-20 00:29 045 3 gusting 5 3.3
2017-Jan-20 00:24 247 3 gusting 6 3.3
2017-Jan-20 00:19 045 4 gusting 6 3.9
2017-Jan-20 00:14 022 6 gusting 10 3.9
2017-Jan-20 00:09 022 6 gusting 9 3.9
2017-Jan-20 00:04 045 5 gusting 6 4.4
2017-Jan-19 23:59 4.4
2017-Jan-19 23:54 4.4
2017-Jan-19 23:49 045 5 gusting 7 4.4
2017-Jan-19 23:44 022 3 gusting 8 4.4
2017-Jan-19 23:39 067 2 gusting 4 4.4
2017-Jan-19 23:34 045 5 gusting 7 4.4
2017-Jan-19 23:29 022 4 gusting 6 4.4
2017-Jan-19 23:24 022 5 gusting 6 4.4
2017-Jan-19 23:19 022 5 gusting 8 4.4
2017-Jan-19 23:14 180 3 gusting 5 4.4
2017-Jan-19 23:09 045 3 gusting 8 4.4
2017-Jan-19 23:04 045 1 gusting 2 4.4
2017-Jan-19 22:59 112 3 gusting 10 4.4
2017-Jan-19 22:54 4.4
2017-Jan-19 22:49 022 6 gusting 10 4.4
2017-Jan-19 22:44 045 6 gusting 10 4.4
2017-Jan-19 22:39 4.4
2017-Jan-19 22:34 337 8 gusting 11 4.4
2017-Jan-19 22:29 270 4 gusting 6 4.4
2017-Jan-19 22:24 022 4 gusting 7 4.4
2017-Jan-19 22:19 315 7 gusting 12 4.4
2017-Jan-19 22:14 022 5 gusting 8 4.4
2017-Jan-19 22:09 4.4
2017-Jan-19 22:04 4.4
2017-Jan-19 21:59 067 7 gusting 10 4.4
2017-Jan-19 21:54 4.4
2017-Jan-19 21:49 4.4
2017-Jan-19 21:44 045 3 gusting 6 4.4
2017-Jan-19 21:39 022 3 gusting 6 4.4
2017-Jan-19 21:34 045 5 gusting 7 5.0
2017-Jan-19 21:29 5.0
2017-Jan-19 21:24 5.0
2017-Jan-19 21:19 045 4 gusting 6 5.0
2017-Jan-19 21:14 5.0
2017-Jan-19 21:09 5.0
2017-Jan-19 21:04 270 4 gusting 6 5.0
2017-Jan-19 20:59 090 5 gusting 11 5.0
2017-Jan-19 20:54 045 5 gusting 7 5.0
2017-Jan-19 20:49 5.0
2017-Jan-19 20:44 022 6 gusting 8 5.0
2017-Jan-19 20:39 337 1 gusting 6 5.0
2017-Jan-19 20:34 022 5 gusting 9 4.4
2017-Jan-19 20:29 4.4
2017-Jan-19 20:24 337 3 gusting 6 4.4
2017-Jan-19 20:19 315 4 gusting 9 4.4
2017-Jan-19 20:14 337 8 gusting 13 4.4
2017-Jan-19 20:09 090 6 gusting 9 4.4
2017-Jan-19 20:04 045 5 gusting 9 4.4
2017-Jan-19 19:59 4.4
2017-Jan-19 19:54 090 6 gusting 9 4.4
2017-Jan-19 19:49 270 5 gusting 11 4.4
2017-Jan-19 19:44 022 1 gusting 3 4.4
2017-Jan-19 19:39 4.4
2017-Jan-19 19:34 022 3 gusting 6 4.4
2017-Jan-19 19:29 4.4
2017-Jan-19 19:24 4.4
2017-Jan-19 19:19 4.4
2017-Jan-19 19:14 045 5 gusting 7 4.4
2017-Jan-19 19:09 5.0
2017-Jan-19 19:04 045 5 gusting 9 5.0
2017-Jan-19 18:59 337 4 gusting 8 5.0
2017-Jan-19 18:54 180 9 gusting 11 5.0
2017-Jan-19 18:49 292 7 gusting 13 5.0
2017-Jan-19 18:44 5.0
2017-Jan-19 18:39 022 11 gusting 17 5.0
2017-Jan-19 18:34 022 10 gusting 16 5.0
2017-Jan-19 18:29 022 6 gusting 11 5.0
2017-Jan-19 18:24 5.0
2017-Jan-19 18:19 5.0
2017-Jan-19 18:14 045 10 gusting 17 5.0
2017-Jan-19 18:09 022 13 gusting 19 5.0
2017-Jan-19 18:04 022 8 gusting 12 5.6
2017-Jan-19 17:59 022 6 gusting 11 5.0
2017-Jan-19 17:54 5.6
2017-Jan-19 17:49 045 9 gusting 13 5.6
2017-Jan-19 17:44 022 8 gusting 12 5.6
2017-Jan-19 17:39 5.6
2017-Jan-19 17:34 022 10 gusting 17 5.6
2017-Jan-19 17:29 045 8 gusting 12 5.6
2017-Jan-19 17:24 045 9 gusting 13 5.6
2017-Jan-19 17:19 022 9 gusting 17 5.6
2017-Jan-19 17:14 022 8 gusting 12 5.6
2017-Jan-19 17:09 022 10 gusting 17 5.6
2017-Jan-19 17:04 292 8 gusting 12 5.6
2017-Jan-19 16:59 022 6 gusting 13 5.6
2017-Jan-19 16:54 045 6 gusting 11 5.6
2017-Jan-19 16:49 5.6
2017-Jan-19 16:44 022 9 gusting 13 5.6
2017-Jan-19 16:39 135 6 gusting 9 5.6
2017-Jan-19 16:34 022 6 gusting 12 5.6
2017-Jan-19 16:29 022 8 gusting 17 5.6
2017-Jan-19 16:24 022 8 gusting 13 5.6
2017-Jan-19 16:19 022 9 gusting 12 6.1
2017-Jan-19 16:14 6.1
2017-Jan-19 16:09 045 7 gusting 11 6.1
2017-Jan-19 16:04 6.1
2017-Jan-19 15:59 6.1
2017-Jan-19 15:54 315 5 gusting 8 6.1
2017-Jan-19 15:49 067 6 gusting 11 6.1
2017-Jan-19 15:44 045 7 gusting 12 6.1
2017-Jan-19 15:39 022 7 gusting 13 6.1
2017-Jan-19 15:34 337 8 gusting 16 6.1
2017-Jan-19 15:29 6.7
2017-Jan-19 15:24 022 6 gusting 13 6.7
2017-Jan-19 15:19 337 8 gusting 13 7.2
2017-Jan-19 15:14 315 7 gusting 13 7.8
2017-Jan-19 15:09 022 6 gusting 13 7.8
2017-Jan-19 15:04 7.8
2017-Jan-19 14:59 337 9 gusting 17 8.3
2017-Jan-19 14:54 337 6 gusting 11 8.3
2017-Jan-19 14:49 315 6 gusting 11 8.3
2017-Jan-19 14:44 315 6 gusting 7 8.3
2017-Jan-19 14:39 315 9 gusting 11 8.9
2017-Jan-19 14:34 337 4 gusting 7 8.9
2017-Jan-19 14:29 315 6 gusting 11 8.9
2017-Jan-19 14:24 337 6 gusting 13 8.9
2017-Jan-19 14:19 022 6 gusting 10 8.9
2017-Jan-19 14:14 9.4
2017-Jan-19 14:09 022 4 gusting 6 9.4
2017-Jan-19 14:04 337 4 gusting 9 9.4
2017-Jan-19 13:59 9.4
2017-Jan-19 13:54 022 8 gusting 13 9.4
2017-Jan-19 13:49 337 9 gusting 15 10.0
2017-Jan-19 13:44 315 3 gusting 4 10.6
2017-Jan-19 13:39 337 6 gusting 8 10.6
2017-Jan-19 13:34 247 9 gusting 13 10.6
2017-Jan-19 13:29 337 7 gusting 11 10.6
2017-Jan-19 13:24 11.1
2017-Jan-19 13:19 11.7
2017-Jan-19 13:14 11.7
2017-Jan-19 13:09 11.7
2017-Jan-19 13:04 11.7
2017-Jan-19 12:59 337 5 gusting 10 12.2
2017-Jan-19 12:54 12.8
2017-Jan-19 12:49 13.3
2017-Jan-19 12:44 247 6 gusting 10 13.9
2017-Jan-19 12:39 270 3 gusting 6 13.3
2017-Jan-19 12:34 270 3 gusting 6 12.8
2017-Jan-19 12:29 13.3
2017-Jan-19 12:24 13.3
2017-Jan-19 12:19 13.3
2017-Jan-19 12:14 315 4 gusting 6 13.9
2017-Jan-19 12:09 15.0
2017-Jan-19 12:04 045 4 gusting 6 15.6
2017-Jan-19 11:59 270 3 gusting 6 15.6
2017-Jan-19 11:54 270 1 gusting 4 15.6
2017-Jan-19 11:49 16.1
2017-Jan-19 11:44 337 4 gusting 7 16.7
2017-Jan-19 11:39 270 2 gusting 6 16.1
2017-Jan-19 11:34 270 4 gusting 5 16.1
2017-Jan-19 11:29 315 3 gusting 5 15.0
2017-Jan-19 11:24 292 0 gusting 1 13.3
2017-Jan-19 11:19 270 12.8
2017-Jan-19 11:14 292 2 gusting 4 12.8
2017-Jan-19 11:09 292 1 gusting 4 13.9
2017-Jan-19 11:04 247 2 gusting 4 15.0
2017-Jan-19 10:59 337 3 gusting 5 15.0
2017-Jan-19 10:54 270 0 gusting 1 13.9
2017-Jan-19 10:49 292 1 gusting 2 12.2
2017-Jan-19 10:44 12.2
2017-Jan-19 10:39 337 1 gusting 3 13.9
2017-Jan-19 10:34 292 1 gusting 3 15.6
2017-Jan-19 10:29 225 3 gusting 6 16.7
2017-Jan-19 10:24 16.7
2017-Jan-19 10:19 247 3 gusting 6 17.2
2017-Jan-19 10:14 247 4 gusting 6 17.8
2017-Jan-19 10:09 225 3 gusting 4 17.8
2017-Jan-19 10:04 270 2 gusting 4 17.8
2017-Jan-19 09:59 202 2 gusting 5 17.8
2017-Jan-19 09:54 270 3 gusting 5 18.3
2017-Jan-19 09:49 180 0 gusting 1 18.3
2017-Jan-19 09:44 202 1 gusting 2 17.8
2017-Jan-19 09:39 270 2 gusting 3 17.8
2017-Jan-19 09:34 202 3 gusting 4 17.8
2017-Jan-19 09:29 247 1 gusting 2 17.8
2017-Jan-19 09:24 270 2 gusting 3 17.2
2017-Jan-19 09:19 247 1 gusting 2 17.2
2017-Jan-19 09:14 247 0 gusting 0 17.2
2017-Jan-19 09:09 247 2 gusting 3 17.2
2017-Jan-19 09:04 225 1 gusting 3 16.7
2017-Jan-19 08:59 202 1 gusting 3 15.6
2017-Jan-19 08:54 315 2 gusting 3 16.1
2017-Jan-19 08:49 270 2 gusting 3 17.2
2017-Jan-19 08:44 225 2 gusting 4 17.2
2017-Jan-19 08:39 337 1 gusting 2 16.7
2017-Jan-19 08:34 247 0 gusting 1 16.1
2017-Jan-19 08:29 270 2 gusting 3 15.0
2017-Jan-19 08:24 270 0 gusting 2 13.9
2017-Jan-19 08:19 292 1 gusting 3 15.0
2017-Jan-19 08:14 292 1 gusting 2 16.7
2017-Jan-19 08:09 225 0 gusting 1 16.7
2017-Jan-19 08:04 225 16.1
2017-Jan-19 07:59 225 15.6
2017-Jan-19 07:54 315 0 gusting 1 15.6
2017-Jan-19 07:49 270 0 gusting 1 15.0
2017-Jan-19 07:44 315 1 gusting 1 15.0
2017-Jan-19 07:39 247 1 gusting 1 15.0
2017-Jan-19 07:34 247 0 gusting 0 14.4
2017-Jan-19 07:29 112 13.3
2017-Jan-19 07:24 12.8
2017-Jan-19 07:19 022 1 gusting 1 12.8
2017-Jan-19 07:14 045 12.2
2017-Jan-19 07:09 090 11.1
2017-Jan-19 07:04 090 11.1
2017-Jan-19 06:59 090 10.6
2017-Jan-19 06:54 090 10.0
2017-Jan-19 06:49 090 1 gusting 2 9.4
2017-Jan-19 06:44 090 1 gusting 1 8.9
2017-Jan-19 06:39 067 8.3
2017-Jan-19 06:34 112 0 gusting 1 7.8
2017-Jan-19 06:29 112 7.8
2017-Jan-19 06:24 022 6.7
2017-Jan-19 06:19 090 6.1
2017-Jan-19 06:14 090 0 gusting 0 6.1
2017-Jan-19 06:09 090 0 gusting 1 5.6
2017-Jan-19 06:04 045 5.6
2017-Jan-19 05:59 337 6.1
2017-Jan-19 05:54 090 0 gusting 0 6.1
2017-Jan-19 05:49 337 6.1
2017-Jan-19 05:44 022 6.1
2017-Jan-19 05:39 045 6.1
2017-Jan-19 05:34 090 1 gusting 3 6.1
2017-Jan-19 05:29 090 0 gusting 1 6.1
2017-Jan-19 05:24 112 0 gusting 1 6.1
2017-Jan-19 05:19 112 0 gusting 1 6.1
2017-Jan-19 05:14 090 1 gusting 2 6.1
2017-Jan-19 05:09 090 6.1
2017-Jan-19 05:04 112 6.1
2017-Jan-19 04:59 090 6.1
2017-Jan-19 04:54 090 1 gusting 2 6.1
2017-Jan-19 04:49 067 6.1
2017-Jan-19 04:44 067 6.1
2017-Jan-19 04:39 067 6.1
2017-Jan-19 04:34 090 1 gusting 1 6.1
2017-Jan-19 04:29 112 0 gusting 1 6.1
2017-Jan-19 04:24 022 6.7
2017-Jan-19 04:19 045 6.7
2017-Jan-19 04:14 022 6.7
2017-Jan-19 04:09 067 7.2
2017-Jan-19 04:04 112 1 gusting 1 7.2
2017-Jan-19 03:59 090 1 gusting 2 7.2
2017-Jan-19 03:54 090 2 gusting 4 7.2
2017-Jan-19 03:49 067 0 gusting 1 7.2
2017-Jan-19 03:44 067 1 gusting 2 7.2
2017-Jan-19 03:39 045 0 gusting 1 7.2
2017-Jan-19 03:34 045 0 gusting 1 7.2
2017-Jan-19 03:29 247 7.2
2017-Jan-19 03:24 247 7.2
2017-Jan-19 03:19 090 1 gusting 3 7.2
2017-Jan-19 03:14 090 2 gusting 3 7.2
2017-Jan-19 03:09 090 1 gusting 2 7.2
2017-Jan-19 03:04 090 2 gusting 3 7.2
2017-Jan-19 02:59 090 1 gusting 1 7.2
2017-Jan-19 02:54 090 2 gusting 3 7.2
2017-Jan-19 02:49 090 7.2
2017-Jan-19 02:44 090 0 gusting 0 7.2
2017-Jan-19 02:39 045 0 gusting 1 7.2
2017-Jan-19 02:34 112 7.2
2017-Jan-19 02:29 112 0 gusting 1 7.2
2017-Jan-19 02:24 067 7.2
2017-Jan-19 02:19 067 7.2
2017-Jan-19 02:14 315 7.2
2017-Jan-19 02:09 315 7.2
2017-Jan-19 02:04 090 0 gusting 1 7.2
2017-Jan-19 01:59 067 1 gusting 2 7.2
2017-Jan-19 01:54 067 1 gusting 3 7.2
2017-Jan-19 01:49 090 4 gusting 6 7.8
2017-Jan-19 01:44 090 2 gusting 3 7.8
2017-Jan-19 01:39 067 2 gusting 3 7.2
2017-Jan-19 01:34 112 2 gusting 4 7.8
2017-Jan-19 01:29 112 1 gusting 2 7.8
2017-Jan-19 01:24 045 1 gusting 1 7.8
2017-Jan-19 01:19 090 2 gusting 3 7.8
2017-Jan-19 01:14 112 1 gusting 2 7.8
2017-Jan-19 01:09 112 1 gusting 3 7.8
2017-Jan-19 01:04 067 0 gusting 1 7.8
2017-Jan-19 00:59 112 1 gusting 3 7.8
2017-Jan-19 00:54 090 4 gusting 6 7.8
2017-Jan-19 00:49 112 3 gusting 4 7.2
2017-Jan-19 00:44 090 1 gusting 2 7.2
2017-Jan-19 00:39 067 2 gusting 5 7.2
2017-Jan-19 00:34 090 1 gusting 2 7.2
2017-Jan-19 00:29 067 2 gusting 3 7.2
2017-Jan-19 00:24 090 3 gusting 5 7.2
2017-Jan-19 00:19 067 1 gusting 2 7.2
2017-Jan-19 00:14 045 3 gusting 6 7.2
2017-Jan-19 00:09 112 2 gusting 4 7.2
2017-Jan-19 00:04 112 2 gusting 3 7.2
2017-Jan-18 23:59 112 3 gusting 5 7.2
2017-Jan-18 23:54 090 1 gusting 2 7.2
2017-Jan-18 23:49 090 2 gusting 3 7.2
2017-Jan-18 23:44 090 1 gusting 3 7.2
2017-Jan-18 23:39 090 1 gusting 1 7.2
2017-Jan-18 23:34 090 0 gusting 1 6.7
2017-Jan-18 23:29 135 6.7
2017-Jan-18 23:24 135 0 gusting 1 6.7
2017-Jan-18 23:19 112 1 gusting 2 6.7
2017-Jan-18 23:14 090 2 gusting 3 6.7
2017-Jan-18 23:09 090 1 gusting 2 6.7
2017-Jan-18 23:04 090 0 gusting 1 6.7
2017-Jan-18 22:59 090 6.7
2017-Jan-18 22:54 112 0 gusting 1 6.7
2017-Jan-18 22:49 112 1 gusting 2 6.7
2017-Jan-18 22:44 090 2 gusting 5 6.7
2017-Jan-18 22:39 090 6.7
2017-Jan-18 22:34 045 1 gusting 2 6.7
2017-Jan-18 22:29 090 2 gusting 3 6.7
2017-Jan-18 22:24 112 1 gusting 2 6.7
2017-Jan-18 22:19 045 1 gusting 3 6.7
2017-Jan-18 22:14 090 1 gusting 2 6.7
2017-Jan-18 22:09 090 1 gusting 2 6.7
2017-Jan-18 22:04 045 6.7
2017-Jan-18 21:59 045 0 gusting 1 6.7
2017-Jan-18 21:54 135 0 gusting 1 6.7
2017-Jan-18 21:49 067 0 gusting 1 6.7
2017-Jan-18 21:44 202 6.7
2017-Jan-18 21:39 045 1 gusting 2 6.7
2017-Jan-18 21:34 090 1 gusting 2 6.7
2017-Jan-18 21:29 090 2 gusting 3 6.7
2017-Jan-18 21:24 112 1 gusting 2 6.7
2017-Jan-18 21:19 112 0 gusting 2 7.2
2017-Jan-18 21:14 112 0 gusting 1 7.2
2017-Jan-18 21:09 135 7.2
2017-Jan-18 21:04 112 7.2
2017-Jan-18 20:59 135 1 gusting 2 7.2
2017-Jan-18 20:54 270 7.2
2017-Jan-18 20:49 337 0 gusting 1 7.2
2017-Jan-18 20:44 112 0 gusting 0 7.2
2017-Jan-18 20:39 292 1 gusting 2 7.2
2017-Jan-18 20:34 337 1 gusting 2 7.8
2017-Jan-18 20:29 315 4 gusting 6 7.8
2017-Jan-18 20:24 157 1 gusting 2 7.8
2017-Jan-18 20:19 247 3 gusting 5 7.8
2017-Jan-18 20:14 225 2 gusting 3 8.3
2017-Jan-18 20:09 225 1 gusting 3 8.3
2017-Jan-18 20:04 112 1 gusting 2 8.3
2017-Jan-18 19:59 090 2 gusting 3 8.3
2017-Jan-18 19:54 067 4 gusting 6 8.3
2017-Jan-18 19:49 135 4 gusting 6 8.3
2017-Jan-18 19:44 112 1 gusting 3 8.3
2017-Jan-18 19:39 112 2 gusting 3 8.3
2017-Jan-18 19:34 112 2 gusting 5 8.3
2017-Jan-18 19:29 135 2 gusting 3 8.3
2017-Jan-18 19:24 135 1 gusting 3 8.3
2017-Jan-18 19:19 112 3 gusting 5 8.3
2017-Jan-18 19:14 157 3 gusting 5 8.3
2017-Jan-18 19:09 112 2 gusting 5 8.3
2017-Jan-18 19:04 112 3 gusting 6 8.3
2017-Jan-18 18:59 202 3 gusting 6 7.8
2017-Jan-18 18:54 135 0 gusting 1 7.8
2017-Jan-18 18:49 157 1 gusting 4 7.8
2017-Jan-18 18:44 157 1 gusting 2 8.3
2017-Jan-18 18:39 180 3 gusting 5 8.3
2017-Jan-18 18:34 135 1 gusting 5 8.9
2017-Jan-18 18:29 090 3 gusting 5 8.9
2017-Jan-18 18:24 067 2 gusting 5 8.9
2017-Jan-18 18:19 090 4 gusting 6 8.9
2017-Jan-18 18:14 135 4 gusting 6 8.9
2017-Jan-18 18:09 112 3 gusting 4 8.9
2017-Jan-18 18:04 135 2 gusting 4 8.9
2017-Jan-18 17:59 112 2 gusting 6 8.3
2017-Jan-18 17:54 112 1 gusting 2 8.3
2017-Jan-18 17:49 202 1 gusting 3 8.9
2017-Jan-18 17:44 135 2 gusting 6 8.9
2017-Jan-18 17:39 067 5 gusting 9 8.9
2017-Jan-18 17:34 045 2 gusting 3 8.9
2017-Jan-18 17:29 090 3 gusting 5 8.9
2017-Jan-18 17:24 112 3 gusting 5 8.3
2017-Jan-18 17:19 135 2 gusting 3 8.9
2017-Jan-18 17:14 090 3 gusting 4 8.9
2017-Jan-18 17:09 067 3 gusting 6 8.9
2017-Jan-18 17:04 112 3 gusting 4 8.9
2017-Jan-18 16:59 090 4 gusting 6 8.3
2017-Jan-18 16:54 090 4 gusting 6 8.3
2017-Jan-18 16:49 090 4 gusting 8 8.3
2017-Jan-18 16:44 067 4 gusting 6 8.3
2017-Jan-18 16:39 090 4 gusting 6 8.3
2017-Jan-18 16:34 022 4 gusting 6 8.3
2017-Jan-18 16:29 157 3 gusting 6 8.3
2017-Jan-18 16:24 090 2 gusting 3 8.3
2017-Jan-18 16:19 090 4 gusting 6 8.3
2017-Jan-18 16:14 090 2 gusting 3 8.3
2017-Jan-18 16:09 067 1 gusting 2 8.3
2017-Jan-18 16:04 090 1 gusting 1 8.3
2017-Jan-18 15:59 090 2 gusting 3 8.3
2017-Jan-18 15:54 045 2 gusting 5 8.3
2017-Jan-18 15:49 090 2 gusting 6 8.3
2017-Jan-18 15:44 090 4 gusting 6 8.3
2017-Jan-18 15:39 112 4 gusting 6 8.3
2017-Jan-18 15:34 090 5 gusting 7 8.3
2017-Jan-18 15:29 090 4 gusting 6 7.8
2017-Jan-18 15:24 090 5 gusting 6 7.8
2017-Jan-18 15:19 090 5 gusting 7 7.8
2017-Jan-18 15:14 090 6 gusting 10 7.8
2017-Jan-18 15:09 090 6 gusting 8 7.8
2017-Jan-18 15:04 112 5 gusting 8 7.8
2017-Jan-18 14:59 090 6 gusting 8 7.8
2017-Jan-18 14:54 067 3 gusting 6 7.8
2017-Jan-18 14:49 112 4 gusting 6 7.8
2017-Jan-18 14:44 112 3 gusting 5 8.3
2017-Jan-18 14:39 112 2 gusting 4 8.3
2017-Jan-18 14:34 090 4 gusting 6 8.3
2017-Jan-18 14:29 090 6 gusting 8 8.3
2017-Jan-18 14:24 090 3 gusting 5 8.3
2017-Jan-18 14:19 090 7 gusting 9 8.3
2017-Jan-18 14:14 112 3 gusting 4 8.3
2017-Jan-18 14:09 090 2 gusting 3 8.9
2017-Jan-18 14:04 135 4 gusting 6 9.4
2017-Jan-18 13:59 112 2 gusting 4 10.0
2017-Jan-18 13:54 090 2 gusting 5 10.0
2017-Jan-18 13:49 112 5 gusting 6 10.0
2017-Jan-18 13:44 090 3 gusting 5 10.0
2017-Jan-18 13:39 112 2 gusting 6 10.0
2017-Jan-18 13:34 112 3 gusting 7 10.0
2017-Jan-18 13:29 112 2 gusting 4 10.0
2017-Jan-18 13:24 090 2 gusting 4 10.0
2017-Jan-18 13:19 067 5 gusting 6 10.0
2017-Jan-18 13:14 090 2 gusting 4 9.4
2017-Jan-18 13:09 090 3 gusting 5 9.4
2017-Jan-18 13:04 157 3 gusting 6 10.0
2017-Jan-18 12:59 090 3 gusting 5 11.1
2017-Jan-18 12:54 112 3 gusting 6 12.2
2017-Jan-18 12:49 157 2 gusting 4 11.7
2017-Jan-18 12:44 135 2 gusting 4 12.8
2017-Jan-18 12:39 157 4 gusting 6 13.3
2017-Jan-18 12:34 135 5 gusting 6 13.9
2017-Jan-18 12:29 112 2 gusting 3 13.9
2017-Jan-18 12:24 112 5 gusting 8 13.3
2017-Jan-18 12:19 202 2 gusting 4 13.3
2017-Jan-18 12:14 112 1 gusting 3 15.0
2017-Jan-18 12:09 045 4 gusting 6 15.6
2017-Jan-18 12:04 180 2 gusting 4 15.6
2017-Jan-18 11:59 090 1 gusting 3 15.6
2017-Jan-18 11:54 157 1 gusting 2 15.6
2017-Jan-18 11:49 180 5 gusting 6 15.6
2017-Jan-18 11:44 112 5 gusting 7 15.6
2017-Jan-18 11:39 202 5 gusting 8 16.1
2017-Jan-18 11:34 135 2 gusting 6 15.6
2017-Jan-18 11:29 180 5 gusting 8 15.6
2017-Jan-18 11:24 180 3 gusting 5 15.0
2017-Jan-18 11:19 180 2 gusting 5 13.3
2017-Jan-18 11:14 247 3 gusting 6 13.3
2017-Jan-18 11:09 157 7 gusting 11 13.3
2017-Jan-18 11:04 135 5 gusting 6 13.9
2017-Jan-18 10:59 247 4 gusting 6 14.4
2017-Jan-18 10:54 157 12.2
2017-Jan-18 10:49 135 0 gusting 1 10.6
2017-Jan-18 10:44 067 0 gusting 1 10.6
2017-Jan-18 10:39 157 2 gusting 5 10.6
2017-Jan-18 10:34 180 2 gusting 3 10.0
2017-Jan-18 10:29 135 1 gusting 3 10.0
2017-Jan-18 10:24 270 4 gusting 6 10.0
2017-Jan-18 10:19 202 10.0
2017-Jan-18 10:14 135 1 gusting 4 10.0
2017-Jan-18 10:09 202 4 gusting 6 10.0
2017-Jan-18 10:04 135 3 gusting 5 10.0
2017-Jan-18 09:59 135 5 gusting 6 10.0
2017-Jan-18 09:54 112 4 gusting 6 10.6
2017-Jan-18 09:49 112 1 gusting 3 10.6
2017-Jan-18 09:44 112 3 gusting 4 11.1
2017-Jan-18 09:39 090 4 gusting 6 11.1
2017-Jan-18 09:34 090 4 gusting 6 11.7
2017-Jan-18 09:29 112 6 gusting 7 11.7
2017-Jan-18 09:24 112 6 gusting 7 12.8
2017-Jan-18 09:19 112 3 gusting 7 12.8
2017-Jan-18 09:14 112 5 gusting 6 11.1
2017-Jan-18 09:09 090 5 gusting 6 10.0
2017-Jan-18 09:04 090 4 gusting 6 8.9
2017-Jan-18 08:59 090 6 gusting 8 8.3
2017-Jan-18 08:54 270 2 gusting 4 7.2
2017-Jan-18 08:49 067 2 gusting 3 6.7
2017-Jan-18 08:44 045 2 gusting 3 6.7
2017-Jan-18 08:39 067 1 gusting 1 6.7
2017-Jan-18 08:34 090 0 gusting 1 6.7
2017-Jan-18 08:29 6.7
2017-Jan-18 08:24 315 6.7
2017-Jan-18 08:19 270 1 gusting 2 6.7
2017-Jan-18 08:14 292 2 gusting 3 6.7
2017-Jan-18 08:09 225 2 gusting 5 6.7
2017-Jan-18 08:04 270 4 gusting 6 7.2
2017-Jan-18 07:59 270 0 gusting 1 7.2
2017-Jan-18 07:54 7.8
2017-Jan-18 07:49 112 2 gusting 4 7.8
2017-Jan-18 07:44 112 1 gusting 2 7.8
2017-Jan-18 07:39 112 2 gusting 4 7.2
2017-Jan-18 07:34 090 2 gusting 4 7.2
2017-Jan-18 07:29 090 1 gusting 2 7.2
2017-Jan-18 07:24 090 0 gusting 2 7.2
2017-Jan-18 07:19 045 3 gusting 6 7.2
2017-Jan-18 07:14 090 2 gusting 3 7.2
2017-Jan-18 07:09 090 0 gusting 1 7.2
2017-Jan-18 07:04 090 1 gusting 1 7.2